Time;durP1;ratioP1;P1;durP2;ratioP2;P2;SDS_P1;SDS_P2;PMS_P1;PMS_P2;Temp;Humidity;BMP_temperature;BMP_pressure;BME280_temperature;BME280_humidity;BME280_pressure;Samples;Min_cycle;Max_cycle;Signal;HPM_P1;HPM_P2
2022/09/09 00:01:20;;;;;;;2.45;1.20;;;22.50;56.60;;;;;;5055103;28;20250;-82
2022/09/09 00:03:56;;;;;;;1.15;1.00;;;22.50;56.60;;;;;;5054899;28;20227;-82
2022/09/09 00:06:26;;;;;;;1.48;0.90;;;22.50;56.50;;;;;;5054377;28;20199;-81
2022/09/09 00:08:59;;;;;;;1.40;1.17;;;22.50;56.50;;;;;;5054098;28;20576;-81
2022/09/09 00:11:29;;;;;;;1.50;1.40;;;22.50;56.50;;;;;;5054050;28;20219;-81
2022/09/09 00:13:57;;;;;;;1.05;0.95;;;22.50;56.50;;;;;;5054561;28;20234;-81
2022/09/09 00:16:27;;;;;;;2.58;1.30;;;22.50;56.50;;;;;;5054684;28;20195;-81
2022/09/09 00:18:59;;;;;;;1.35;1.10;;;22.50;56.50;;;;;;5055330;28;20192;-82
2022/09/09 00:21:33;;;;;;;2.30;1.33;;;22.50;56.50;;;;;;5055376;28;20618;-81
2022/09/09 00:24:00;;;;;;;1.77;1.20;;;22.40;56.50;;;;;;5053358;28;20245;-81
2022/09/09 00:26:32;;;;;;;1.40;1.00;;;22.40;56.50;;;;;;5054745;28;20200;-81
2022/09/09 00:29:01;;;;;;;2.17;1.23;;;22.40;56.50;;;;;;5053662;28;20582;-81
2022/09/09 00:31:30;;;;;;;1.38;1.27;;;22.40;56.50;;;;;;5054064;28;20225;-81
2022/09/09 00:33:59;;;;;;;1.63;1.30;;;22.40;56.50;;;;;;5054093;28;20195;-82
2022/09/09 00:36:28;;;;;;;2.00;1.20;;;22.40;56.50;;;;;;5053776;28;20226;-81
2022/09/09 00:38:57;;;;;;;2.53;1.30;;;22.40;56.50;;;;;;5053331;28;20282;-81
2022/09/09 00:41:30;;;;;;;1.30;1.20;;;22.40;56.50;;;;;;5053271;28;20219;-81
2022/09/09 00:43:59;;;;;;;1.13;1.02;;;22.40;56.50;;;;;;5054125;28;20241;-82
2022/09/09 00:46:49;;;;;;;1.48;1.30;;;22.40;56.50;;;;;;5054517;28;20199;-81
2022/09/09 00:49:21;;;;;;;2.08;1.38;;;22.40;56.50;;;;;;5054091;28;20226;-82
2022/09/09 00:51:53;;;;;;;1.55;1.00;;;22.40;56.50;;;;;;5054127;28;20212;-82
2022/09/09 00:54:37;;;;;;;1.45;1.08;;;22.40;56.50;;;;;;5053863;28;20195;-82
2022/09/09 00:57:19;;;;;;;1.63;1.20;;;22.40;56.50;;;;;;5053872;28;20183;-81
2022/09/09 00:59:48;;;;;;;1.25;1.15;;;22.40;56.50;;;;;;5053313;28;20246;-81
2022/09/09 01:02:27;;;;;;;1.60;1.23;;;22.40;56.50;;;;;;5053273;28;20199;-81
2022/09/09 01:04:55;;;;;;;1.52;1.20;;;22.40;56.50;;;;;;5053115;28;20199;-81
2022/09/09 01:07:24;;;;;;;1.40;1.10;;;22.40;56.50;;;;;;5052753;28;20665;-81
2022/09/09 01:09:56;;;;;;;2.10;1.20;;;22.40;56.50;;;;;;5052644;28;20733;-81
2022/09/09 01:12:32;;;;;;;1.85;1.27;;;22.40;56.50;;;;;;5053066;28;20199;-81
2022/09/09 01:15:05;;;;;;;2.08;1.33;;;22.40;56.50;;;;;;5053023;28;20199;-81
2022/09/09 01:17:35;;;;;;;2.05;1.20;;;22.40;56.50;;;;;;5053621;28;20187;-82
2022/09/09 01:20:12;;;;;;;1.15;1.02;;;22.40;56.40;;;;;;5052937;28;20238;-81
2022/09/09 01:22:57;;;;;;;1.52;1.27;;;22.40;56.50;;;;;;5052823;28;20201;-83
2022/09/09 01:28:27;;;;;;;1.90;1.30;;;22.40;56.50;;;;;;5091529;27;21149;-57
2022/09/09 01:30:59;;;;;;;2.65;1.30;;;22.40;56.40;;;;;;5089471;28;20194;-57
2022/09/09 01:33:31;;;;;;;1.67;1.27;;;22.40;56.40;;;;;;5090445;28;20243;-57
2022/09/09 01:36:00;;;;;;;2.25;1.30;;;22.40;56.50;;;;;;5091220;28;20642;-57
2022/09/09 01:38:32;;;;;;;1.25;1.00;;;22.40;56.50;;;;;;5089722;28;20306;-57
2022/09/09 01:40:59;;;;;;;2.28;1.20;;;22.40;56.50;;;;;;5089409;28;20198;-57
2022/09/09 01:43:37;;;;;;;2.30;1.15;;;22.40;56.50;;;;;;5089684;28;20186;-57
2022/09/09 01:46:05;;;;;;;1.77;1.30;;;22.30;56.40;;;;;;5089312;28;20221;-57
2022/09/09 01:48:34;;;;;;;1.27;1.15;;;22.30;56.40;;;;;;5090944;28;20186;-57
2022/09/09 01:51:09;;;;;;;1.85;1.20;;;22.30;56.40;;;;;;5089398;28;20188;-57
2022/09/09 01:53:36;;;;;;;1.98;1.13;;;22.40;56.50;;;;;;5089253;28;20229;-57
2022/09/09 01:56:09;;;;;;;1.20;1.10;;;22.40;56.50;;;;;;5089149;28;20210;-57
2022/09/09 01:58:48;;;;;;;1.52;1.20;;;22.40;56.50;;;;;;5089276;28;20276;-57
2022/09/09 02:01:18;;;;;;;2.97;1.20;;;22.40;56.50;;;;;;5089091;28;20255;-57
2022/09/09 02:03:50;;;;;;;2.28;1.25;;;22.30;56.40;;;;;;5089249;28;20190;-57
2022/09/09 02:06:26;;;;;;;1.42;1.20;;;22.40;56.50;;;;;;5088711;28;20216;-57
2022/09/09 02:08:57;;;;;;;1.63;1.33;;;22.30;56.40;;;;;;5088884;28;20198;-57
2022/09/09 02:11:26;;;;;;;1.70;1.20;;;22.30;56.40;;;;;;5090333;28;20671;-57
2022/09/09 02:14:20;;;;;;;1.80;1.10;;;22.30;56.40;;;;;;5081547;28;20194;-56
2022/09/09 02:16:50;;;;;;;1.65;1.25;;;22.30;56.40;;;;;;5089095;28;20212;-56
2022/09/09 02:19:23;;;;;;;1.50;1.25;;;22.30;56.40;;;;;;5089425;28;20203;-56
2022/09/09 02:22:05;;;;;;;1.83;1.25;;;22.30;56.40;;;;;;5088786;28;20205;-57
2022/09/09 02:24:35;;;;;;;1.70;1.20;;;22.30;56.40;;;;;;5089800;28;20193;-57
2022/09/09 02:27:12;;;;;;;1.20;1.10;;;22.30;56.40;;;;;;5088383;28;20230;-57
2022/09/09 02:29:42;;;;;;;1.58;1.17;;;22.30;56.40;;;;;;5088281;28;20244;-57
2022/09/09 02:32:12;;;;;;;1.38;1.20;;;22.20;56.30;;;;;;5088237;28;20553;-57
2022/09/09 02:34:41;;;;;;;2.17;1.23;;;22.30;57.00;;;;;;5088168;28;20593;-57
2022/09/09 02:37:09;;;;;;;1.80;1.08;;;22.30;56.40;;;;;;5089450;28;20209;-57
2022/09/09 02:39:37;;;;;;;1.52;1.40;;;22.30;56.40;;;;;;5075486;28;20195;-57
2022/09/09 02:42:08;;;;;;;1.27;1.15;;;22.20;56.30;;;;;;5074854;28;20199;-57
2022/09/09 02:44:35;;;;;;;1.10;1.00;;;22.20;56.30;;;;;;5074886;28;20254;-57
2022/09/09 02:47:15;;;;;;;1.00;1.00;;;22.20;56.40;;;;;;5074593;28;20288;-57
2022/09/09 02:49:49;;;;;;;1.25;1.00;;;22.20;56.30;;;;;;5074509;28;20664;-57
2022/09/09 02:52:19;;;;;;;1.27;1.17;;;22.20;56.40;;;;;;5074415;28;20198;-57
2022/09/09 02:54:47;;;;;;;1.73;1.20;;;22.20;56.30;;;;;;5074361;28;20699;-57
2022/09/09 02:57:17;;;;;;;1.38;1.20;;;22.20;56.40;;;;;;5074347;28;20734;-56
2022/09/09 02:59:46;;;;;;;1.77;1.30;;;22.20;56.40;;;;;;5074357;28;20260;-57
2022/09/09 03:02:15;;;;;;;2.70;1.20;;;22.20;56.30;;;;;;5075579;28;20237;-57
2022/09/09 03:04:50;;;;;;;1.58;1.20;;;22.20;56.30;;;;;;5074463;28;20199;-56
2022/09/09 03:07:18;;;;;;;1.45;1.13;;;22.10;56.30;;;;;;5074060;28;20692;-57
2022/09/09 03:09:45;;;;;;;1.00;1.00;;;22.20;56.40;;;;;;5074134;28;20549;-57
2022/09/09 03:12:13;;;;;;;1.80;1.30;;;22.10;56.20;;;;;;5075421;28;20559;-57
2022/09/09 03:14:40;;;;;;;2.20;1.55;;;22.10;56.20;;;;;;5073984;28;20228;-56
2022/09/09 03:17:09;;;;;;;1.75;1.17;;;22.10;55.90;;;;;;5073898;28;20663;-57
2022/09/09 03:19:42;;;;;;;1.75;1.00;;;22.10;55.80;;;;;;5074836;28;20191;-57
2022/09/09 03:22:10;;;;;;;1.30;1.20;;;22.10;55.80;;;;;;5073814;28;20675;-57
2022/09/09 03:24:40;;;;;;;2.70;1.33;;;22.10;55.70;;;;;;5073875;28;20201;-57
2022/09/09 03:27:07;;;;;;;1.73;1.30;;;22.10;55.60;;;;;;5039681;23;20268;-64
2022/09/09 03:29:37;;;;;;;1.13;1.02;;;22.20;55.60;;;;;;5014790;28;20201;-64
2022/09/09 03:32:10;;;;;;;1.20;1.10;;;22.20;55.40;;;;;;5014846;28;20193;-64
2022/09/09 03:34:38;;;;;;;1.27;1.05;;;22.30;55.40;;;;;;5015778;28;20213;-64
2022/09/09 03:37:08;;;;;;;1.27;1.20;;;22.30;55.20;;;;;;5014263;28;20584;-64
2022/09/09 03:39:36;;;;;;;1.13;1.00;;;22.30;55.10;;;;;;5014303;28;20287;-64
2022/09/09 03:42:05;;;;;;;1.20;1.10;;;22.40;55.10;;;;;;5014482;28;20643;-64
2022/09/09 03:44:33;;;;;;;2.42;1.20;;;22.40;55.00;;;;;;5014191;28;20678;-64
2022/09/09 03:47:01;;;;;;;1.55;1.10;;;22.50;54.90;;;;;;5013978;28;20663;-66
2022/09/09 03:49:29;;;;;;;1.33;0.95;;;22.40;54.80;;;;;;5015310;28;20339;-64
2022/09/09 03:51:57;;;;;;;1.40;1.08;;;22.50;54.90;;;;;;5013926;28;20196;-66
2022/09/09 03:54:25;;;;;;;1.35;1.10;;;22.50;54.80;;;;;;5014097;28;20291;-66
2022/09/09 03:56:53;;;;;;;1.77;1.05;;;22.50;54.70;;;;;;5013989;28;20220;-66
2022/09/09 03:59:22;;;;;;;1.40;0.95;;;22.50;54.80;;;;;;5014133;28;20209;-66
2022/09/09 04:01:50;;;;;;;1.65;1.08;;;22.50;54.70;;;;;;5014132;28;20207;-66
2022/09/09 04:04:19;;;;;;;2.38;1.17;;;22.50;54.70;;;;;;5013658;28;20574;-66
2022/09/09 04:06:48;;;;;;;1.45;1.00;;;22.50;54.70;;;;;;5013710;28;20220;-66
2022/09/09 04:09:15;;;;;;;1.80;0.88;;;22.50;54.70;;;;;;5013641;28;20280;-66
2022/09/09 04:11:44;;;;;;;2.03;1.10;;;22.40;54.60;;;;;;5013728;28;20295;-66
2022/09/09 04:14:11;;;;;;;2.25;1.20;;;22.40;54.70;;;;;;5013836;28;20746;-66
2022/09/09 04:16:38;;;;;;;1.58;1.00;;;22.40;54.70;;;;;;5013630;28;20720;-66
2022/09/09 04:19:06;;;;;;;1.13;1.00;;;22.50;54.70;;;;;;5014644;28;20189;-67
2022/09/09 04:21:33;;;;;;;1.30;1.00;;;22.40;54.60;;;;;;5013642;28;20188;-67
2022/09/09 04:24:02;;;;;;;1.17;1.00;;;22.40;54.70;;;;;;5013255;28;20196;-67
2022/09/09 04:26:29;;;;;;;1.35;1.10;;;22.40;54.70;;;;;;5012973;28;20220;-66
2022/09/09 04:28:57;;;;;;;1.73;1.00;;;22.40;54.70;;;;;;5013281;28;20219;-66
2022/09/09 04:31:25;;;;;;;2.85;1.20;;;22.40;54.70;;;;;;5013374;28;20279;-66
2022/09/09 04:33:56;;;;;;;1.77;1.05;;;22.40;54.70;;;;;;5013281;28;20180;-66
2022/09/09 04:36:23;;;;;;;1.35;1.13;;;22.40;54.40;;;;;;5017678;28;20223;-66
2022/09/09 04:38:54;;;;;;;2.33;1.25;;;22.40;54.70;;;;;;5013368;28;20193;-66
2022/09/09 04:41:22;;;;;;;1.33;1.10;;;22.40;54.70;;;;;;5014725;28;20217;-66
2022/09/09 04:43:53;;;;;;;0.93;0.90;;;22.40;54.70;;;;;;5012979;28;20197;-67
2022/09/09 04:46:23;;;;;;;1.95;1.25;;;22.40;54.70;;;;;;5012767;28;20220;-66
2022/09/09 04:48:52;;;;;;;1.75;1.20;;;22.40;54.70;;;;;;5014384;28;20205;-66
2022/09/09 04:51:19;;;;;;;1.75;1.20;;;22.40;54.80;;;;;;5012949;28;20552;-66
2022/09/09 04:53:50;;;;;;;2.83;1.00;;;22.30;54.80;;;;;;5012820;28;20201;-66
2022/09/09 04:56:18;;;;;;;1.52;1.20;;;22.30;54.90;;;;;;5012651;28;20701;-66
2022/09/09 04:58:55;;;;;;;1.92;1.10;;;22.40;55.00;;;;;;5012785;28;20184;-67
2022/09/09 05:01:27;;;;;;;1.35;1.00;;;22.30;54.90;;;;;;5012570;28;20201;-67
2022/09/09 05:04:00;;;;;;;1.40;1.10;;;22.40;55.00;;;;;;5012681;28;20197;-66
2022/09/09 05:06:28;;;;;;;1.33;1.05;;;22.40;55.00;;;;;;5012476;28;20710;-66
2022/09/09 05:08:59;;;;;;;1.85;1.10;;;22.40;55.00;;;;;;5012549;28;20212;-66
2022/09/09 05:11:30;;;;;;;1.45;1.25;;;22.40;55.10;;;;;;5012831;28;20284;-66
2022/09/09 05:14:01;;;;;;;1.20;1.10;;;22.40;55.00;;;;;;5012621;28;20189;-66
2022/09/09 05:16:31;;;;;;;1.83;1.20;;;22.40;55.00;;;;;;5012522;28;20638;-66
2022/09/09 05:18:58;;;;;;;1.40;1.10;;;22.30;55.00;;;;;;5012879;28;20200;-66
2022/09/09 05:21:30;;;;;;;1.75;1.10;;;22.40;55.10;;;;;;5012967;28;20193;-66
2022/09/09 05:23:57;;;;;;;1.20;1.02;;;22.40;55.00;;;;;;5012498;28;20196;-66
2022/09/09 05:26:25;;;;;;;1.35;1.10;;;22.40;55.00;;;;;;5012093;28;20243;-66
2022/09/09 05:28:53;;;;;;;1.23;1.00;;;22.40;55.10;;;;;;5012409;28;20677;-67
2022/09/09 05:31:20;;;;;;;1.27;1.10;;;22.40;55.00;;;;;;5012370;28;20251;-66
2022/09/09 05:33:52;;;;;;;1.52;1.17;;;22.40;55.00;;;;;;5012523;28;20207;-66
2022/09/09 05:36:21;;;;;;;1.60;1.23;;;22.40;55.00;;;;;;5013082;28;20279;-66
2022/09/09 05:38:53;;;;;;;2.05;1.20;;;22.50;55.10;;;;;;5012492;28;20230;-66
2022/09/09 05:41:22;;;;;;;1.95;1.40;;;22.50;55.00;;;;;;5012606;28;20219;-66
2022/09/09 05:43:51;;;;;;;1.30;1.20;;;22.50;54.80;;;;;;5012288;28;20188;-66
2022/09/09 05:46:21;;;;;;;1.17;1.05;;;22.50;54.90;;;;;;5012312;28;20220;-66
2022/09/09 05:48:53;;;;;;;1.38;1.20;;;22.50;54.90;;;;;;5012152;28;20728;-66
2022/09/09 05:51:27;;;;;;;2.25;1.42;;;22.50;54.90;;;;;;5012224;28;20192;-66
2022/09/09 05:53:58;;;;;;;1.77;1.38;;;22.50;55.00;;;;;;5013493;28;20668;-66
2022/09/09 05:56:28;;;;;;;1.42;1.20;;;22.50;55.00;;;;;;5012812;28;20213;-66
2022/09/09 05:58:57;;;;;;;1.23;1.13;;;22.50;55.00;;;;;;5012159;28;20196;-66
2022/09/09 06:01:26;;;;;;;2.35;1.38;;;22.50;55.00;;;;;;5012029;28;20205;-66
2022/09/09 06:03:55;;;;;;;2.05;1.20;;;22.50;55.00;;;;;;5011940;28;20675;-66
2022/09/09 06:06:25;;;;;;;1.55;1.25;;;22.50;55.00;;;;;;5012094;28;20216;-67
2022/09/09 06:08:56;;;;;;;1.92;1.30;;;22.50;55.00;;;;;;5011902;28;20229;-66
2022/09/09 06:11:24;;;;;;;2.22;1.20;;;22.50;54.80;;;;;;5011951;28;20671;-68
2022/09/09 06:13:53;;;;;;;1.30;1.20;;;22.50;54.70;;;;;;5013511;28;20214;-67
2022/09/09 06:16:22;;;;;;;2.33;1.50;;;22.50;54.60;;;;;;5015483;28;20654;-66
2022/09/09 06:18:50;;;;;;;1.40;1.23;;;22.50;54.60;;;;;;5015484;28;20207;-66
2022/09/09 06:21:20;;;;;;;1.40;1.30;;;22.50;54.60;;;;;;5015625;28;20208;-66
2022/09/09 06:23:48;;;;;;;1.45;1.20;;;22.60;54.50;;;;;;5015511;28;20645;-66
2022/09/09 06:26:17;;;;;;;2.70;1.50;;;22.60;54.40;;;;;;5015177;28;20231;-66
2022/09/09 06:28:45;;;;;;;1.65;1.20;;;22.60;54.40;;;;;;5015472;28;20220;-66
2022/09/09 06:31:13;;;;;;;2.60;1.50;;;22.70;54.40;;;;;;5015409;28;20207;-66
2022/09/09 06:33:43;;;;;;;2.10;1.40;;;22.70;54.40;;;;;;5015259;28;20670;-66
2022/09/09 06:36:12;;;;;;;1.40;1.30;;;22.70;54.20;;;;;;5015101;28;20240;-67
2022/09/09 06:38:41;;;;;;;2.60;1.63;;;22.70;53.90;;;;;;5016324;28;20189;-66
2022/09/09 06:41:09;;;;;;;2.80;1.45;;;22.70;54.00;;;;;;5015529;28;20208;-67
2022/09/09 06:43:36;;;;;;;3.00;1.50;;;22.70;53.90;;;;;;5015467;28;20204;-67
2022/09/09 06:46:04;;;;;;;1.95;1.42;;;22.80;53.90;;;;;;5015192;28;20228;-66
2022/09/09 06:48:33;;;;;;;2.78;1.40;;;22.80;53.90;;;;;;5015362;28;20278;-66
2022/09/09 06:51:02;;;;;;;2.08;1.40;;;22.80;53.80;;;;;;5015017;28;20703;-66
2022/09/09 06:53:33;;;;;;;2.25;1.23;;;22.90;53.60;;;;;;5015234;28;20219;-66
2022/09/09 06:56:02;;;;;;;1.83;1.45;;;22.90;53.80;;;;;;5015054;28;20718;-67
2022/09/09 06:58:32;;;;;;;2.13;1.60;;;22.90;53.80;;;;;;5015140;28;20587;-67
2022/09/09 07:01:04;;;;;;;2.45;1.27;;;22.90;53.30;;;;;;5014755;28;20208;-66
2022/09/09 07:03:32;;;;;;;3.05;1.30;;;23.00;53.50;;;;;;5016025;28;20189;-67
2022/09/09 07:05:59;;;;;;;2.42;1.50;;;23.00;53.20;;;;;;5014935;28;20216;-67
2022/09/09 07:08:28;;;;;;;2.17;1.30;;;23.00;53.30;;;;;;5015131;28;20271;-66
2022/09/09 07:10:59;;;;;;;2.00;1.40;;;23.10;53.10;;;;;;5015673;28;20204;-68
2022/09/09 07:13:28;;;;;;;4.25;1.58;;;23.10;53.10;;;;;;5015014;28;20349;-67
2022/09/09 07:15:56;;;;;;;1.80;1.20;;;23.10;53.00;;;;;;5014503;28;20303;-67
2022/09/09 07:18:25;;;;;;;3.47;1.42;;;23.20;52.80;;;;;;5015891;28;20223;-67
2022/09/09 07:20:56;;;;;;;2.05;1.50;;;23.20;52.80;;;;;;5014606;28;20197;-66
2022/09/09 07:23:25;;;;;;;2.80;1.50;;;23.30;52.90;;;;;;5014530;28;20227;-66
2022/09/09 07:25:53;;;;;;;3.22;1.48;;;23.30;52.50;;;;;;5014340;28;20225;-66
2022/09/09 07:28:20;;;;;;;2.15;1.50;;;23.40;52.50;;;;;;5014351;28;20209;-66
2022/09/09 07:30:55;;;;;;;3.50;1.60;;;23.50;52.30;;;;;;5014366;28;20201;-66
2022/09/09 07:33:22;;;;;;;2.58;1.42;;;23.60;52.10;;;;;;5014419;28;20260;-66
2022/09/09 07:35:50;;;;;;;3.63;1.60;;;23.70;52.20;;;;;;5015451;28;20651;-66
2022/09/09 07:38:17;;;;;;;1.60;1.30;;;23.90;51.80;;;;;;5014067;28;20197;-67
2022/09/09 07:40:44;;;;;;;2.70;1.52;;;24.10;51.50;;;;;;5014105;28;20207;-67
2022/09/09 07:43:11;;;;;;;2.92;1.70;;;24.10;51.20;;;;;;5014261;28;20201;-67
2022/09/09 07:45:40;;;;;;;3.72;1.58;;;24.20;50.90;;;;;;5014005;28;20216;-67
2022/09/09 07:48:09;;;;;;;2.88;1.40;;;24.20;50.70;;;;;;5014216;28;20192;-66
2022/09/09 07:50:36;;;;;;;1.92;1.20;;;24.30;51.20;;;;;;5013936;28;20721;-66
2022/09/09 07:53:05;;;;;;;1.38;1.23;;;24.40;50.70;;;;;;5014201;28;20196;-67
2022/09/09 07:55:32;;;;;;;2.75;1.48;;;24.60;50.60;;;;;;5013727;28;20224;-66
2022/09/09 07:57:59;;;;;;;2.80;1.30;;;24.70;50.40;;;;;;5013971;28;20197;-66
2022/09/09 08:00:28;;;;;;;2.50;1.33;;;24.70;50.20;;;;;;5013903;28;20255;-67
2022/09/09 08:02:57;;;;;;;5.32;1.67;;;24.90;50.10;;;;;;5014021;28;20192;-66
2022/09/09 08:05:26;;;;;;;3.60;1.33;;;25.10;49.70;;;;;;5013868;28;20196;-67
2022/09/09 08:07:54;;;;;;;2.35;1.40;;;25.30;49.20;;;;;;5014053;28;20710;-67
2022/09/09 08:10:22;;;;;;;2.20;1.40;;;25.60;48.80;;;;;;5015191;28;20212;-67
2022/09/09 08:12:52;;;;;;;2.63;1.40;;;25.80;48.30;;;;;;5014053;28;20193;-67
2022/09/09 08:15:19;;;;;;;1.67;1.30;;;26.00;47.90;;;;;;5013760;28;20217;-68
2022/09/09 08:17:47;;;;;;;2.10;1.42;;;26.10;47.50;;;;;;5013853;28;20263;-67
2022/09/09 08:20:14;;;;;;;1.63;1.45;;;26.20;47.40;;;;;;5013520;28;20196;-67
2022/09/09 08:22:43;;;;;;;1.30;1.20;;;26.20;47.30;;;;;;5013746;28;20740;-67
2022/09/09 08:25:10;;;;;;;2.63;1.38;;;26.20;47.10;;;;;;5013991;28;20236;-67
2022/09/09 08:27:38;;;;;;;1.50;1.30;;;26.30;46.90;;;;;;5013525;28;20226;-67
2022/09/09 08:30:06;;;;;;;1.27;1.17;;;26.50;47.30;;;;;;5013370;28;20220;-67
2022/09/09 08:32:34;;;;;;;1.77;1.13;;;26.60;46.30;;;;;;5014521;28;20272;-68
2022/09/09 08:35:02;;;;;;;2.00;1.40;;;26.70;46.10;;;;;;5013345;28;20283;-67
2022/09/09 08:37:31;;;;;;;1.75;1.40;;;26.80;45.90;;;;;;5012883;28;20223;-68
2022/09/09 08:40:02;;;;;;;1.33;1.10;;;26.90;45.60;;;;;;5013664;28;20192;-68
2022/09/09 08:42:37;;;;;;;1.65;1.20;;;27.00;45.40;;;;;;5013386;28;20188;-66
2022/09/09 08:45:22;;;;;;;1.20;1.10;;;27.10;45.30;;;;;;5013317;28;20190;-68
2022/09/09 08:48:00;;;;;;;2.10;1.25;;;27.20;45.10;;;;;;5013203;28;20226;-68
2022/09/09 08:50:28;;;;;;;1.55;1.15;;;27.20;45.10;;;;;;5012957;28;20234;-68
2022/09/09 08:53:03;;;;;;;1.40;1.10;;;27.20;44.90;;;;;;5012986;28;20196;-67
2022/09/09 08:55:38;;;;;;;1.60;1.15;;;27.30;44.70;;;;;;5012790;28;20279;-68
2022/09/09 08:58:10;;;;;;;1.90;1.17;;;27.30;44.60;;;;;;5012836;28;20198;-68
2022/09/09 09:00:42;;;;;;;2.58;1.20;;;27.40;44.60;;;;;;5013155;28;20192;-67
2022/09/09 09:03:14;;;;;;;2.10;1.33;;;27.30;44.70;;;;;;5013310;28;20189;-68
2022/09/09 09:05:46;;;;;;;1.73;1.40;;;27.30;44.80;;;;;;5012766;28;20197;-67
2022/09/09 09:08:16;;;;;;;1.85;1.20;;;27.30;44.70;;;;;;5012708;28;20207;-68
2022/09/09 09:10:48;;;;;;;1.73;1.10;;;27.30;44.70;;;;;;5012511;28;20313;-67
2022/09/09 09:13:20;;;;;;;1.90;1.08;;;27.30;44.60;;;;;;5013025;28;20253;-67
2022/09/09 09:15:51;;;;;;;2.00;1.17;;;27.40;44.40;;;;;;5012768;28;20282;-67
2022/09/09 09:18:18;;;;;;;1.17;1.05;;;27.50;44.40;;;;;;5012849;28;20259;-68
2022/09/09 09:20:55;;;;;;;1.92;1.20;;;27.50;44.10;;;;;;5013975;28;20689;-68
2022/09/09 09:23:23;;;;;;;2.95;1.30;;;27.60;44.00;;;;;;5012730;28;20198;-68
2022/09/09 09:25:53;;;;;;;2.05;1.10;;;27.70;43.90;;;;;;5012218;28;20676;-67
2022/09/09 09:28:22;;;;;;;1.45;1.00;;;27.80;43.70;;;;;;5013148;28;20206;-67
2022/09/09 09:30:55;;;;;;;2.58;1.27;;;27.90;43.70;;;;;;5012701;28;20204;-68
2022/09/09 09:33:24;;;;;;;1.67;1.13;;;27.70;43.70;;;;;;5012438;28;20298;-68
2022/09/09 09:35:53;;;;;;;1.23;1.00;;;27.60;44.60;;;;;;5012325;28;20698;-67
2022/09/09 09:38:23;;;;;;;1.55;1.20;;;27.40;44.20;;;;;;5012482;28;20645;-67
2022/09/09 09:40:57;;;;;;;1.98;1.15;;;27.20;44.50;;;;;;5012657;28;20200;-67
2022/09/09 09:43:26;;;;;;;1.70;1.20;;;27.00;44.90;;;;;;5012255;28;20203;-67
2022/09/09 09:45:53;;;;;;;1.58;1.02;;;26.90;45.20;;;;;;5013385;28;20565;-68
2022/09/09 09:48:20;;;;;;;2.03;1.00;;;26.80;45.40;;;;;;5012987;28;20246;-68
2022/09/09 09:50:48;;;;;;;2.30;1.10;;;26.70;45.50;;;;;;5015975;28;20592;-67
2022/09/09 09:53:20;;;;;;;2.30;1.20;;;26.80;45.50;;;;;;5016127;28;20291;-68
2022/09/09 09:55:50;;;;;;;1.85;1.10;;;26.90;45.30;;;;;;5016787;28;20282;-67
2022/09/09 09:58:19;;;;;;;2.08;0.98;;;27.00;45.90;;;;;;5015953;28;20242;-67
2022/09/09 10:00:50;;;;;;;1.50;1.00;;;27.10;45.10;;;;;;5016027;28;20275;-67
2022/09/09 10:03:22;;;;;;;1.83;0.88;;;27.20;45.10;;;;;;5015778;28;20196;-67
2022/09/09 10:05:51;;;;;;;1.80;0.93;;;27.20;45.00;;;;;;5015900;28;20216;-67
2022/09/09 10:08:19;;;;;;;1.33;0.93;;;27.30;44.90;;;;;;5017175;28;20681;-68
2022/09/09 10:10:52;;;;;;;1.88;1.00;;;27.30;44.90;;;;;;5015718;28;20227;-67
2022/09/09 10:13:23;;;;;;;1.95;0.93;;;27.40;44.90;;;;;;5016055;28;20734;-68
2022/09/09 10:15:57;;;;;;;1.83;1.08;;;27.40;44.90;;;;;;5015643;28;20292;-67
2022/09/09 10:18:48;;;;;;;1.60;0.90;;;27.40;44.90;;;;;;5015655;28;20207;-68
2022/09/09 10:21:25;;;;;;;0.95;0.80;;;27.40;44.90;;;;;;5016814;28;20653;-67
2022/09/09 10:24:14;;;;;;;1.80;1.00;;;27.40;44.90;;;;;;5015594;28;20195;-67
2022/09/09 10:26:45;;;;;;;1.10;0.82;;;27.40;45.00;;;;;;5016711;28;20237;-67
2022/09/09 10:29:43;;;;;;;1.80;1.02;;;27.40;45.00;;;;;;5015449;28;20697;-67
2022/09/09 10:32:33;;;;;;;0.80;0.80;;;27.40;45.20;;;;;;5010925;28;20204;-67
2022/09/09 10:35:05;;;;;;;1.73;1.08;;;27.40;45.20;;;;;;5015446;28;20192;-67
2022/09/09 10:37:49;;;;;;;1.88;1.08;;;27.30;45.10;;;;;;5015111;28;20220;-67
2022/09/09 10:40:25;;;;;;;1.40;0.82;;;27.30;45.20;;;;;;5015197;28;20243;-67
2022/09/09 10:42:54;;;;;;;1.90;1.02;;;27.30;45.40;;;;;;5015152;28;20203;-68
2022/09/09 10:45:26;;;;;;;1.25;0.90;;;27.30;45.40;;;;;;5016293;28;20192;-67
2022/09/09 10:48:01;;;;;;;2.25;0.90;;;27.20;45.40;;;;;;5014916;28;20705;-67
2022/09/09 10:50:45;;;;;;;1.20;0.82;;;27.30;45.60;;;;;;5014804;28;20203;-67
2022/09/09 10:53:15;;;;;;;2.38;0.95;;;27.20;45.70;;;;;;5014952;28;20613;-67
2022/09/09 10:55:43;;;;;;;1.08;0.80;;;27.20;45.70;;;;;;5015004;28;20200;-67
2022/09/09 10:58:13;;;;;;;1.25;0.88;;;27.20;45.80;;;;;;5014918;28;20230;-67
2022/09/09 11:00:42;;;;;;;1.45;0.90;;;27.20;45.90;;;;;;5015628;28;20307;-67
2022/09/09 11:03:13;;;;;;;1.40;0.80;;;27.10;45.80;;;;;;5014925;28;20212;-67
2022/09/09 11:05:42;;;;;;;1.85;1.05;;;27.10;45.90;;;;;;5014569;28;20582;-67
2022/09/09 11:08:11;;;;;;;2.30;1.05;;;27.10;46.00;;;;;;5014746;28;20196;-67
2022/09/09 11:10:41;;;;;;;1.08;0.80;;;27.10;46.10;;;;;;5015881;28;20303;-67
2022/09/09 11:13:11;;;;;;;1.55;0.93;;;27.00;46.20;;;;;;5016105;28;20563;-67
2022/09/09 11:15:42;;;;;;;1.30;0.80;;;27.00;46.20;;;;;;5016097;28;20196;-67
2022/09/09 11:18:12;;;;;;;1.15;0.82;;;27.00;46.30;;;;;;5015797;28;20597;-67
2022/09/09 11:20:40;;;;;;;0.73;0.73;;;26.90;46.40;;;;;;5014631;28;20188;-68
2022/09/09 11:23:11;;;;;;;1.10;1.00;;;26.90;46.40;;;;;;5014373;28;20565;-68
2022/09/09 11:25:39;;;;;;;1.50;0.85;;;26.80;46.40;;;;;;5014286;28;20786;-67
2022/09/09 11:28:20;;;;;;;1.88;1.00;;;26.80;46.60;;;;;;5014512;28;20195;-67
2022/09/09 11:30:54;;;;;;;0.85;0.80;;;26.70;46.70;;;;;;5015805;28;20576;-67
2022/09/09 11:33:49;;;;;;;0.63;0.63;;;26.70;46.80;;;;;;5015739;28;20172;-67
2022/09/09 11:36:42;;;;;;;1.00;0.80;;;26.60;46.90;;;;;;5014192;28;20315;-67
2022/09/09 11:39:23;;;;;;;1.88;1.00;;;26.60;47.10;;;;;;5014071;28;20661;-67
2022/09/09 11:41:50;;;;;;;1.27;1.00;;;26.50;47.10;;;;;;5015277;28;20186;-67
2022/09/09 11:44:19;;;;;;;1.50;0.77;;;26.50;47.20;;;;;;5014249;28;20200;-68
2022/09/09 11:46:49;;;;;;;1.42;0.85;;;26.40;47.30;;;;;;5013735;28;20725;-67
2022/09/09 11:49:27;;;;;;;1.98;0.90;;;26.40;47.20;;;;;;5014326;28;20196;-67
2022/09/09 11:51:55;;;;;;;0.98;0.82;;;26.40;47.40;;;;;;5014765;28;20199;-67
2022/09/09 11:54:32;;;;;;;1.60;0.70;;;26.30;47.40;;;;;;5013914;28;20247;-67
2022/09/09 11:56:59;;;;;;;1.27;0.90;;;26.30;47.40;;;;;;5013828;28;20220;-67
2022/09/09 11:59:27;;;;;;;1.15;0.90;;;26.30;47.30;;;;;;5013731;28;20641;-68
2022/09/09 12:01:57;;;;;;;2.38;1.02;;;26.40;47.30;;;;;;5013702;28;20207;-67
2022/09/09 12:04:33;;;;;;;1.38;1.00;;;26.30;47.20;;;;;;5015489;28;20217;-67
2022/09/09 12:07:02;;;;;;;1.45;0.88;;;26.40;47.20;;;;;;5013669;28;20215;-67
2022/09/09 12:09:32;;;;;;;0.90;0.82;;;26.40;47.10;;;;;;5013727;28;20211;-67
2022/09/09 12:12:22;;;;;;;1.85;1.00;;;26.40;47.00;;;;;;5014137;28;20193;-67
2022/09/09 12:14:57;;;;;;;1.42;1.10;;;26.40;47.10;;;;;;5013508;28;20216;-67
2022/09/09 12:17:27;;;;;;;2.55;1.02;;;26.40;47.00;;;;;;5014689;28;20215;-67
2022/09/09 12:20:04;;;;;;;2.38;1.10;;;26.40;46.90;;;;;;5015012;28;20185;-67
2022/09/09 12:22:35;;;;;;;1.73;0.75;;;26.40;46.70;;;;;;5014889;28;20181;-67
2022/09/09 12:25:04;;;;;;;1.40;0.80;;;26.40;46.70;;;;;;5013496;28;20192;-67
2022/09/09 12:27:34;;;;;;;1.35;0.90;;;26.40;47.20;;;;;;5014626;28;20216;-67
2022/09/09 12:30:03;;;;;;;1.27;0.88;;;26.40;46.60;;;;;;5013471;28;20584;-67
2022/09/09 12:32:31;;;;;;;0.90;0.68;;;26.40;46.50;;;;;;5014089;28;20207;-73
2022/09/09 12:35:00;;;;;;;0.82;0.60;;;26.40;46.60;;;;;;5014122;28;20206;-67
2022/09/09 12:37:30;;;;;;;1.00;0.70;;;26.40;46.70;;;;;;5014659;28;20215;-67
2022/09/09 12:39:57;;;;;;;0.98;0.70;;;26.40;46.70;;;;;;5013320;28;20196;-67
2022/09/09 12:42:25;;;;;;;0.95;0.60;;;26.40;46.80;;;;;;5014365;28;20193;-67
2022/09/09 12:44:56;;;;;;;1.20;0.80;;;26.40;46.50;;;;;;5014612;28;20192;-67
2022/09/09 12:47:25;;;;;;;0.93;0.80;;;26.40;46.60;;;;;;5013112;28;20216;-67
2022/09/09 12:49:56;;;;;;;0.85;0.68;;;26.30;46.50;;;;;;5014183;28;20216;-67
2022/09/09 12:52:26;;;;;;;0.93;0.60;;;26.40;46.60;;;;;;5013030;28;20222;-67
2022/09/09 12:54:53;;;;;;;0.77;0.70;;;26.30;46.40;;;;;;5014632;28;20662;-67
2022/09/09 12:57:21;;;;;;;0.70;0.55;;;26.30;46.20;;;;;;5014000;28;20237;-67
2022/09/09 12:59:48;;;;;;;1.17;0.70;;;26.40;46.30;;;;;;5012841;28;20572;-67
2022/09/09 13:02:21;;;;;;;2.85;0.90;;;26.40;46.30;;;;;;5012760;28;20585;-67
2022/09/09 13:04:50;;;;;;;1.50;0.80;;;26.40;46.10;;;;;;5014212;28;20268;-67
2022/09/09 13:07:18;;;;;;;0.85;0.70;;;26.40;46.10;;;;;;5014430;28;20705;-68
2022/09/09 13:09:45;;;;;;;0.50;0.50;;;26.40;46.10;;;;;;5012988;28;20200;-67